Time;durP1;ratioP1;P1;durP2;ratioP2;P2;SDS_P1;SDS_P2;PMS_P1;PMS_P2;Temp;Humidity;BMP_temperature;BMP_pressure;BME280_temperature;BME280_humidity;BME280_pressure;Samples;Min_cycle;Max_cycle;Signal;HPM_P1;HPM_P2
2024/03/03 00:00:30;;;;;;;19.98;12.85;;;12.20;99.90;;;;;;4978799;28;20078;-57
2024/03/03 00:02:56;;;;;;;16.95;11.70;;;12.00;99.90;;;;;;4996812;28;20501;-52
2024/03/03 00:05:22;;;;;;;17.73;11.27;;;11.80;99.90;;;;;;4996633;28;20106;-54
2024/03/03 00:07:47;;;;;;;16.33;10.80;;;11.90;99.90;;;;;;4996988;28;20119;-56
2024/03/03 00:10:13;;;;;;;17.60;10.57;;;11.90;99.90;;;;;;4996813;28;20022;-55
2024/03/03 00:12:39;;;;;;;15.85;10.55;;;11.70;99.90;;;;;;4996724;28;20120;-53
2024/03/03 00:15:05;;;;;;;15.15;10.82;;;11.70;99.90;;;;;;4996810;28;20034;-55
2024/03/03 00:17:31;;;;;;;19.92;11.10;;;11.70;99.90;;;;;;4962582;28;20046;-54
2024/03/03 00:19:57;;;;;;;16.00;11.48;;;11.60;99.90;;;;;;4987039;28;20189;-56
2024/03/03 00:22:22;;;;;;;15.85;11.85;;;11.40;99.90;;;;;;4943142;28;20498;-56
2024/03/03 00:24:48;;;;;;;16.92;11.90;;;11.50;99.90;;;;;;4977028;28;20031;-54
2024/03/03 00:27:14;;;;;;;17.77;12.07;;;11.50;99.90;;;;;;4977198;28;20027;-54
2024/03/03 00:29:43;;;;;;;19.85;11.77;;;11.50;99.90;;;;;;4976690;28;20475;-56
2024/03/03 00:32:08;;;;;;;17.42;11.32;;;11.30;99.90;;;;;;4976630;28;20030;-57
2024/03/03 00:34:35;;;;;;;16.48;11.38;;;11.10;99.90;;;;;;4976773;28;20109;-53
2024/03/03 00:37:01;;;;;;;19.90;11.85;;;11.10;99.90;;;;;;4959071;28;20046;-55
2024/03/03 00:39:27;;;;;;;17.38;11.77;;;10.90;99.90;;;;;;4942697;28;20047;-54
2024/03/03 00:41:52;;;;;;;17.60;12.20;;;11.00;99.90;;;;;;4977017;28;20037;-57
2024/03/03 00:44:18;;;;;;;18.83;11.77;;;11.00;99.90;;;;;;4976981;28;20038;-53
2024/03/03 00:46:46;;;;;;;18.50;12.20;;;11.00;99.90;;;;;;4976675;28;20031;-54
2024/03/03 00:49:13;;;;;;;16.08;11.30;;;11.00;99.90;;;;;;4976610;28;20035;-58
2024/03/03 00:51:39;;;;;;;15.35;11.35;;;10.90;99.90;;;;;;4976457;28;20045;-52
2024/03/03 00:54:05;;;;;;;16.95;11.77;;;11.00;99.90;;;;;;4958910;28;20026;-56
2024/03/03 00:56:31;;;;;;;15.52;10.30;;;11.00;99.90;;;;;;4976821;28;20026;-58
2024/03/03 00:58:57;;;;;;;16.48;10.90;;;11.10;99.90;;;;;;4976276;28;20023;-54
2024/03/03 01:01:22;;;;;;;16.67;11.25;;;11.00;99.90;;;;;;4976374;28;20050;-52
2024/03/03 01:03:48;;;;;;;15.18;11.32;;;11.00;99.90;;;;;;4976370;28;20398;-53
2024/03/03 01:06:14;;;;;;;23.73;12.32;;;10.90;99.90;;;;;;4976705;28;20049;-57
2024/03/03 01:08:40;;;;;;;15.55;11.15;;;10.80;99.90;;;;;;4976353;28;20475;-53
2024/03/03 01:11:06;;;;;;;18.95;11.48;;;10.90;99.90;;;;;;4976397;28;20038;-51
2024/03/03 01:13:32;;;;;;;17.08;12.38;;;10.80;99.90;;;;;;4976112;28;20027;-54
2024/03/03 01:15:58;;;;;;;19.83;12.23;;;10.80;99.90;;;;;;4958856;28;20058;-56
2024/03/03 01:18:23;;;;;;;16.95;11.73;;;10.90;99.90;;;;;;4976045;28;20027;-55
2024/03/03 01:20:49;;;;;;;22.58;12.00;;;10.80;99.90;;;;;;4971519;28;20058;-55
2024/03/03 01:23:15;;;;;;;19.42;11.93;;;10.90;99.90;;;;;;4976287;28;20050;-53
2024/03/03 01:25:43;;;;;;;16.52;11.98;;;10.80;99.90;;;;;;4974627;28;20121;-53
2024/03/03 01:28:09;;;;;;;18.67;11.85;;;10.70;99.90;;;;;;4975952;28;20039;-54
2024/03/03 01:30:35;;;;;;;14.65;10.63;;;10.80;99.90;;;;;;4975956;28;20032;-55
2024/03/03 01:33:00;;;;;;;17.70;11.95;;;10.90;99.90;;;;;;4976033;28;20034;-57
2024/03/03 01:35:26;;;;;;;17.00;11.80;;;10.90;99.90;;;;;;4975696;28;20029;-54
2024/03/03 01:37:52;;;;;;;17.70;12.50;;;10.90;99.90;;;;;;4958050;28;20043;-53
2024/03/03 01:40:18;;;;;;;19.40;12.82;;;10.70;99.90;;;;;;4975634;28;20086;-53
2024/03/03 01:42:44;;;;;;;18.77;12.32;;;;;;;;;;4975608;28;20031;-54
2024/03/03 01:45:22;;;;;;;20.13;13.07;;;10.20;99.90;;;;;;4975430;28;20027;-55
2024/03/03 01:47:51;;;;;;;18.40;12.88;;;10.20;99.90;;;;;;4975601;28;20114;-56
2024/03/03 01:50:18;;;;;;;19.13;13.05;;;10.20;99.90;;;;;;4975452;28;20035;-54
2024/03/03 01:52:46;;;;;;;19.85;13.13;;;10.20;99.90;;;;;;4974694;28;20031;-52
2024/03/03 01:55:14;;;;;;;18.52;13.40;;;10.40;99.90;;;;;;4975591;28;20057;-53
2024/03/03 01:57:41;;;;;;;17.92;12.05;;;10.50;99.90;;;;;;4975501;28;20034;-54
2024/03/03 02:00:10;;;;;;;19.40;12.02;;;10.60;99.90;;;;;;4975235;28;20030;-53
2024/03/03 02:02:39;;;;;;;20.92;12.90;;;10.60;99.90;;;;;;4975400;28;20030;-52
2024/03/03 02:05:10;;;;;;;17.38;11.95;;;10.50;99.90;;;;;;4972840;28;20466;-56
2024/03/03 02:07:36;;;;;;;18.00;13.40;;;10.60;99.90;;;;;;4975167;28;20027;-56
2024/03/03 02:10:02;;;;;;;20.77;12.93;;;10.60;99.90;;;;;;4975348;28;20033;-54
2024/03/03 02:12:28;;;;;;;23.05;12.80;;;10.40;99.90;;;;;;4974802;28;20034;-53
2024/03/03 02:14:55;;;;;;;19.13;13.23;;;10.40;99.90;;;;;;4975166;28;20109;-55
2024/03/03 02:17:21;;;;;;;21.33;13.82;;;10.40;99.90;;;;;;4975085;28;20459;-53
2024/03/03 02:19:47;;;;;;;18.17;12.77;;;10.30;99.90;;;;;;4973606;28;20058;-56
2024/03/03 02:22:13;;;;;;;21.63;13.55;;;10.20;99.90;;;;;;4974956;28;20130;-56
2024/03/03 02:24:38;;;;;;;19.35;12.68;;;10.10;99.90;;;;;;4975137;28;20514;-55
2024/03/03 02:27:05;;;;;;;20.48;13.38;;;10.10;99.90;;;;;;4957176;28;20376;-54
2024/03/03 02:29:31;;;;;;;18.33;13.52;;;10.00;99.90;;;;;;4956815;28;20084;-54
2024/03/03 02:31:56;;;;;;;19.95;13.80;;;10.00;99.90;;;;;;4974758;28;20023;-52
2024/03/03 02:34:25;;;;;;;16.73;13.10;;;10.10;99.90;;;;;;4974587;28;20026;-59
2024/03/03 02:36:50;;;;;;;20.60;13.52;;;10.00;99.90;;;;;;4974980;28;20030;-52
2024/03/03 02:39:17;;;;;;;20.55;14.88;;;;;;;;;;4957137;28;20043;-56
2024/03/03 02:41:43;;;;;;;23.33;14.68;;;9.80;99.90;;;;;;4974671;28;20145;-50
2024/03/03 02:44:08;;;;;;;22.70;16.80;;;9.60;99.90;;;;;;4956860;28;20252;-51
2024/03/03 02:46:34;;;;;;;23.23;15.50;;;9.70;99.90;;;;;;4974561;28;20093;-51
2024/03/03 02:49:00;;;;;;;23.77;15.40;;;9.60;99.90;;;;;;4974694;28;20023;-52
2024/03/03 02:51:26;;;;;;;22.42;15.77;;;9.60;99.90;;;;;;4974803;28;20037;-54
2024/03/03 02:53:52;;;;;;;21.60;15.05;;;9.50;99.90;;;;;;4974793;28;20031;-54
2024/03/03 02:56:18;;;;;;;27.48;16.67;;;9.50;99.90;;;;;;4974562;28;20039;-56
2024/03/03 02:58:44;;;;;;;27.00;16.42;;;9.50;99.90;;;;;;4974335;28;20023;-53
2024/03/03 03:01:10;;;;;;;28.88;16.65;;;9.50;99.90;;;;;;4974516;28;20372;-56
2024/03/03 03:03:36;;;;;;;26.90;16.02;;;9.40;99.90;;;;;;4974447;28;20030;-52
2024/03/03 03:06:02;;;;;;;21.85;16.13;;;9.40;99.90;;;;;;4974701;28;20431;-55
2024/03/03 03:08:28;;;;;;;22.45;15.25;;;9.40;99.90;;;;;;4974483;28;20050;-53
2024/03/03 03:10:54;;;;;;;23.90;15.70;;;9.50;99.90;;;;;;4973261;28;20110;-50
2024/03/03 03:13:20;;;;;;;21.40;15.45;;;9.50;99.90;;;;;;4974411;28;20545;-52
2024/03/03 03:15:46;;;;;;;24.65;15.35;;;9.50;99.90;;;;;;4924698;28;20042;-53
2024/03/03 03:18:12;;;;;;;20.33;14.73;;;9.50;99.90;;;;;;4974364;28;20023;-51
2024/03/03 03:20:37;;;;;;;23.63;14.20;;;9.50;99.90;;;;;;4972854;28;20055;-52
2024/03/03 03:23:03;;;;;;;24.25;16.08;;;9.40;99.90;;;;;;4974588;28;20111;-53
2024/03/03 03:25:29;;;;;;;20.13;14.52;;;9.40;99.90;;;;;;4976943;28;20074;-53
2024/03/03 03:27:55;;;;;;;21.75;15.75;;;9.40;99.90;;;;;;4978160;28;20438;-54
2024/03/03 03:30:21;;;;;;;22.90;13.68;;;9.50;99.90;;;;;;4978243;28;20037;-54
2024/03/03 03:32:47;;;;;;;21.80;15.48;;;;;;;;;;4978032;28;20027;-52
2024/03/03 03:35:13;;;;;;;25.45;16.23;;;;;;;;;;4978064;28;20026;-54
2024/03/03 03:37:39;;;;;;;25.50;16.73;;;9.10;99.90;;;;;;4977963;28;20125;-52
2024/03/03 03:40:09;;;;;;;21.30;14.10;;;9.10;99.90;;;;;;4978058;28;20113;-55
2024/03/03 03:42:36;;;;;;;23.02;15.35;;;8.80;99.90;;;;;;4977980;28;20039;-54
2024/03/03 03:45:03;;;;;;;22.88;13.95;;;8.80;99.90;;;;;;4978129;28;20097;-53
2024/03/03 03:47:30;;;;;;;25.60;15.07;;;8.70;99.90;;;;;;4959963;28;20039;-53
2024/03/03 03:49:56;;;;;;;22.58;15.40;;;8.40;99.90;;;;;;4977620;28;20019;-52
2024/03/03 03:52:22;;;;;;;22.92;15.20;;;8.50;99.90;;;;;;4956217;29;20188;-54
2024/03/03 03:54:48;;;;;;;20.63;14.43;;;;;;;;;;4956451;29;20086;-54
2024/03/03 03:57:14;;;;;;;19.77;12.80;;;8.30;99.90;;;;;;4956370;29;20035;-53
2024/03/03 03:59:41;;;;;;;21.38;14.40;;;8.30;99.90;;;;;;4956162;29;20106;-55
2024/03/03 04:02:07;;;;;;;23.88;13.80;;;8.50;99.90;;;;;;4956230;29;20035;-53
2024/03/03 04:04:34;;;;;;;20.42;13.82;;;8.40;99.90;;;;;;4956244;28;20488;-52
2024/03/03 04:07:04;;;;;;;20.90;13.80;;;8.40;99.90;;;;;;4955974;29;20130;-54
2024/03/03 04:09:31;;;;;;;22.55;14.73;;;8.40;99.90;;;;;;4939949;29;20028;-53
2024/03/03 04:11:58;;;;;;;22.65;15.05;;;8.30;99.90;;;;;;4955932;29;20023;-54
2024/03/03 04:14:24;;;;;;;21.60;13.80;;;;;;;;;;4956112;29;20037;-55
2024/03/03 04:16:50;;;;;;;24.38;14.98;;;8.80;99.90;;;;;;4955761;29;20058;-52
2024/03/03 04:19:15;;;;;;;20.95;14.93;;;8.90;99.90;;;;;;4955532;29;20464;-51
2024/03/03 04:21:41;;;;;;;26.85;15.20;;;9.10;99.90;;;;;;4939825;29;20074;-55
2024/03/03 04:24:08;;;;;;;21.60;15.20;;;;;;;;;;4955654;29;20122;-55
2024/03/03 04:26:34;;;;;;;22.02;13.43;;;;;;;;;;4939704;29;20027;-53
2024/03/03 04:29:00;;;;;;;23.23;13.90;;;8.50;99.90;;;;;;4947058;28;20047;-54
2024/03/03 04:31:26;;;;;;;22.48;14.70;;;8.50;99.90;;;;;;4996556;28;20161;-53
2024/03/03 04:33:53;;;;;;;17.02;12.65;;;;;;;;;;4996180;28;20109;-50
2024/03/03 04:36:19;;;;;;;24.25;13.73;;;;;;;;;;4996174;28;20038;-51
2024/03/03 04:38:45;;;;;;;17.83;12.48;;;8.90;99.90;;;;;;4996460;28;20473;-55
2024/03/03 04:41:14;;;;;;;20.35;13.52;;;;;;;;;;4996148;28;20034;-56
2024/03/03 04:43:42;;;;;;;20.67;12.55;;;8.40;99.90;;;;;;4996176;28;20034;-54
2024/03/03 04:46:08;;;;;;;19.13;13.30;;;;;;;;;;4996374;28;20030;-51
2024/03/03 04:48:35;;;;;;;20.90;13.40;;;;;;;;;;4955319;29;20121;-54
2024/03/03 04:51:01;;;;;;;23.50;14.25;;;;;;;;;;4955211;29;20042;-56
2024/03/03 04:53:27;;;;;;;19.90;13.63;;;;;;;;;;4955054;29;20039;-55
2024/03/03 04:55:54;;;;;;;24.63;14.55;;;;;;;;;;4939159;29;20090;-55
2024/03/03 04:58:19;;;;;;;20.30;14.77;;;9.00;99.90;;;;;;4955213;29;20035;-53
2024/03/03 05:00:45;;;;;;;23.42;14.68;;;8.90;99.90;;;;;;4938983;29;20483;-53
2024/03/03 05:03:11;;;;;;;21.88;13.68;;;8.70;99.90;;;;;;4955008;29;20082;-54
2024/03/03 05:05:37;;;;;;;21.30;14.13;;;8.70;99.90;;;;;;4955109;29;20038;-54
2024/03/03 05:08:03;;;;;;;22.23;14.93;;;8.70;99.90;;;;;;4955021;29;20039;-51
2024/03/03 05:10:29;;;;;;;23.20;16.13;;;8.80;99.90;;;;;;4923154;29;20438;-52
2024/03/03 05:12:55;;;;;;;26.08;16.58;;;8.70;99.90;;;;;;4954979;29;20059;-50
2024/03/03 05:15:20;;;;;;;21.30;15.45;;;8.60;99.90;;;;;;4954765;29;20067;-56
2024/03/03 05:17:46;;;;;;;22.75;15.38;;;8.50;99.90;;;;;;4938728;29;20067;-50
2024/03/03 05:20:12;;;;;;;23.35;15.55;;;;;;;;;;4968581;28;20058;-51
2024/03/03 05:22:38;;;;;;;22.10;16.50;;;;;;;;;;4995445;28;20030;-52
2024/03/03 05:25:06;;;;;;;23.38;16.95;;;;;;;;;;4995481;28;20363;-56
2024/03/03 05:27:33;;;;;;;21.88;16.52;;;;;;;;;;4995508;28;20038;-56
2024/03/03 05:30:00;;;;;;;23.65;16.00;;;;;;;;;;4995338;28;20497;-52
2024/03/03 05:32:26;;;;;;;22.58;17.25;;;8.40;99.90;;;;;;4994857;28;20378;-53
2024/03/03 05:34:53;;;;;;;22.00;15.80;;;8.50;99.90;;;;;;4995198;28;20037;-55
2024/03/03 05:37:19;;;;;;;23.58;15.60;;;;;;;;;;4995300;28;20031;-53
2024/03/03 05:39:45;;;;;;;22.35;15.45;;;8.20;99.90;;;;;;4995229;28;20046;-51
2024/03/03 05:42:11;;;;;;;24.65;17.27;;;8.30;99.90;;;;;;4994628;28;20109;-53
2024/03/03 05:44:38;;;;;;;28.83;18.42;;;8.20;99.90;;;;;;4994691;28;20081;-55
2024/03/03 05:47:05;;;;;;;30.50;19.88;;;8.20;99.90;;;;;;4993169;28;20386;-51
2024/03/03 05:49:33;;;;;;;28.10;19.80;;;;;;;;;;4994923;28;20492;-50
2024/03/03 05:52:00;;;;;;;31.75;19.00;;;;;;;;;;4995148;28;20351;-51
2024/03/03 05:54:26;;;;;;;32.25;19.13;;;;;;;;;;4977428;28;20049;-52
2024/03/03 05:56:52;;;;;;;27.48;18.65;;;;;;;;;;4994534;28;20039;-51
2024/03/03 05:59:19;;;;;;;26.98;18.77;;;9.10;99.90;;;;;;4971680;28;20094;-54
2024/03/03 06:01:48;;;;;;;31.05;19.02;;;9.20;99.90;;;;;;4972683;28;20446;-51
2024/03/03 06:04:20;;;;;;;30.90;19.60;;;9.40;99.90;;;;;;4973475;28;20041;-56
2024/03/03 06:06:46;;;;;;;38.80;24.48;;;9.50;99.90;;;;;;4955401;28;20050;-55
2024/03/03 06:09:12;;;;;;;45.75;25.98;;;9.70;99.90;;;;;;4973402;28;20121;-54
2024/03/03 06:11:39;;;;;;;42.25;27.98;;;9.70;99.90;;;;;;4934744;28;20491;-51
2024/03/03 06:14:08;;;;;;;35.83;22.52;;;10.10;99.90;;;;;;4972425;28;20038;-51
2024/03/03 06:16:43;;;;;;;39.35;24.27;;;10.40;99.90;;;;;;4972232;28;20031;-55
2024/03/03 06:19:09;;;;;;;33.38;23.08;;;10.90;99.90;;;;;;4971944;28;20171;-53
2024/03/03 06:21:34;;;;;;;45.60;25.13;;;12.10;99.90;;;;;;4956217;28;20084;-55
2024/03/03 06:24:00;;;;;;;39.85;24.02;;;12.20;99.90;;;;;;4972339;28;20061;-53
2024/03/03 06:26:30;;;;;;;38.53;22.45;;;;;;;;;;4972655;28;20030;-54
2024/03/03 06:28:56;;;;;;;35.88;23.70;;;;;;;;;;4972465;28;20487;-51
2024/03/03 06:31:22;;;;;;;44.47;31.17;;;;;;;;;;4992709;28;20475;-55
2024/03/03 06:33:48;;;;;;;50.92;32.10;;;14.50;99.90;;;;;;4975661;28;20049;-52
2024/03/03 06:36:23;;;;;;;46.10;33.45;;;;;;;;;;4959719;28;20030;-55
2024/03/03 06:38:50;;;;;;;41.78;30.77;;;;;;;;;;4974856;28;20031;-55
2024/03/03 06:41:16;;;;;;;37.97;29.02;;;;;;;;;;4974880;28;20066;-54
2024/03/03 06:43:43;;;;;;;29.48;22.60;;;16.20;99.90;;;;;;4987948;28;20042;-55
2024/03/03 06:46:13;;;;;;;26.60;18.25;;;;;;;;;;4994087;28;20382;-55
2024/03/03 06:48:39;;;;;;;23.45;17.75;;;;;;;;;;4993814;28;20111;-56
2024/03/03 06:51:06;;;;;;;23.10;17.80;;;;;;;;;;4994137;28;20106;-57
2024/03/03 06:53:37;;;;;;;23.17;16.25;;;;;;;;;;4976509;28;20532;-57
2024/03/03 06:56:03;;;;;;;26.40;18.20;;;;;;;;;;4993175;28;20034;-55
2024/03/03 06:58:29;;;;;;;25.40;16.50;;;;;;;;;;4969699;28;20045;-53
2024/03/03 07:00:55;;;;;;;22.80;14.98;;;;;;;;;;4975974;28;20046;-52
2024/03/03 07:03:56;;;;;;;23.65;16.05;;;;;;;;;;4991973;28;20381;-54
2024/03/03 07:06:07;;;;;;;23.45;16.60;;;;;;;;;;4989034;28;20042;-54
2024/03/03 07:08:34;;;;;;;23.95;17.45;;;;;;;;;;4993627;28;20026;-54
2024/03/03 07:11:00;;;;;;;26.63;18.55;;;;;;;;;;4941085;28;20047;-50
2024/03/03 07:13:25;;;;;;;22.35;16.80;;;21.70;88.60;;;;;;4974451;28;20054;-57
2024/03/03 07:15:51;;;;;;;24.13;16.92;;;21.40;89.10;;;;;;4974362;28;20063;-57
2024/03/03 07:18:17;;;;;;;27.15;19.73;;;;;;;;;;4974301;28;20027;-59
2024/03/03 07:20:43;;;;;;;22.23;17.88;;;22.00;86.90;;;;;;4958776;28;20058;-54
2024/03/03 07:23:09;;;;;;;23.52;16.13;;;;;;;;;;4955030;29;20391;-55
2024/03/03 07:25:35;;;;;;;26.60;16.45;;;;;;;;;;4954953;29;20486;-60
2024/03/03 07:28:01;;;;;;;25.05;16.23;;;;;;;;;;4921455;29;20047;-57
2024/03/03 07:30:27;;;;;;;22.15;14.95;;;;;;;;;;4921381;29;20071;-54
2024/03/03 07:32:53;;;;;;;23.15;16.40;;;;;;;;;;4937522;29;20472;-53
2024/03/03 07:35:19;;;;;;;23.17;14.95;;;26.70;80.50;;;;;;4955121;28;20042;-54
2024/03/03 07:37:45;;;;;;;27.67;15.45;;;;;;;;;;4954960;29;20023;-53
2024/03/03 07:40:11;;;;;;;21.38;14.50;;;27.40;99.90;;;;;;4954871;29;20047;-52
2024/03/03 07:42:37;;;;;;;18.73;13.77;;;;;;;;;;4937057;29;20039;-57
2024/03/03 07:45:03;;;;;;;20.75;14.23;;;;;;;;;;4937216;28;20098;-57
2024/03/03 07:47:30;;;;;;;23.17;15.15;;;;;;;;;;4905618;29;20039;-54
2024/03/03 07:49:56;;;;;;;22.88;14.77;;;;;;;;;;4921461;29;20045;-56
2024/03/03 07:52:22;;;;;;;22.70;15.23;;;28.10;91.00;;;;;;4914750;29;20133;-59
2024/03/03 07:54:48;;;;;;;24.73;14.93;;;28.10;77.20;;;;;;4914606;29;20044;-52
2024/03/03 07:57:14;;;;;;;22.67;15.43;;;;;;;;;;4914624;29;20494;-56
2024/03/03 07:59:39;;;;;;;19.27;14.27;;;28.90;76.50;;;;;;4914469;29;20068;-58
2024/03/03 08:02:05;;;;;;;25.63;17.17;;;29.40;75.80;;;;;;4914720;29;20040;-61
2024/03/03 08:04:32;;;;;;;18.00;13.10;;;;;;;;;;4914711;29;20028;-55
2024/03/03 08:06:58;;;;;;;55.45;29.77;;;29.80;74.00;;;;;;4914444;29;20044;-56
2024/03/03 08:09:24;;;;;;;52.08;27.15;;;28.70;73.60;;;;;;4914809;29;20031;-52
2024/03/03 08:11:50;;;;;;;43.70;23.58;;;27.60;74.10;;;;;;4917839;29;20188;-56
2024/03/03 08:14:15;;;;;;;29.42;16.80;;;27.00;74.70;;;;;;4917968;29;20032;-54
2024/03/03 08:16:42;;;;;;;18.85;11.88;;;27.80;75.80;;;;;;4917741;29;20032;-56
2024/03/03 08:19:08;;;;;;;73.82;37.25;;;28.10;75.60;;;;;;4920149;29;20052;-57
2024/03/03 08:21:34;;;;;;;40.03;25.27;;;28.60;75.80;;;;;;4936700;29;20373;-54
2024/03/03 08:24:00;;;;;;;44.10;28.15;;;28.90;74.90;;;;;;4968061;28;20041;-55
2024/03/03 08:26:25;;;;;;;43.03;27.45;;;29.30;74.90;;;;;;4959541;28;20035;-55
2024/03/03 08:28:52;;;;;;;45.53;28.35;;;;;;;;;;4927225;28;20082;-55
2024/03/03 08:31:18;;;;;;;28.10;21.02;;;;;;;;;;4977138;28;20034;-59
2024/03/03 08:33:45;;;;;;;33.83;23.50;;;;;;;;;;4977149;28;20027;-59
2024/03/03 08:36:11;;;;;;;31.08;23.17;;;;;;;;;;4976942;28;20042;-56
2024/03/03 08:38:38;;;;;;;26.27;20.88;;;;;;;;;;4976979;28;20027;-60
2024/03/03 08:41:04;;;;;;;24.15;19.10;;;;;;;;;;4976983;28;20050;-51
2024/03/03 08:43:35;;;;;;;25.10;19.55;;;;;;;;;;4975598;28;20037;-58
2024/03/03 08:46:02;;;;;;;23.85;17.70;;;;;;;;;;4977052;28;20455;-60
2024/03/03 08:48:28;;;;;;;23.17;16.50;;;31.10;72.60;;;;;;4976832;28;20390;-57
2024/03/03 08:50:54;;;;;;;23.40;17.83;;;30.80;72.40;;;;;;4976651;28;20031;-54
2024/03/03 08:53:20;;;;;;;27.10;18.67;;;30.10;73.10;;;;;;4976859;28;20027;-56
2024/03/03 08:55:45;;;;;;;24.95;18.60;;;30.60;72.70;;;;;;4976607;28;20065;-53
2024/03/03 08:58:11;;;;;;;25.58;18.38;;;30.10;72.30;;;;;;4942910;28;20043;-56
2024/03/03 09:00:37;;;;;;;24.75;16.48;;;30.80;72.30;;;;;;4976492;28;20045;-54
2024/03/03 09:03:03;;;;;;;20.77;13.30;;;31.10;71.60;;;;;;4976532;28;20050;-59
2024/03/03 09:05:29;;;;;;;16.05;11.98;;;30.70;71.10;;;;;;4958687;28;20050;-56
2024/03/03 09:07:55;;;;;;;18.75;11.93;;;31.10;70.60;;;;;;4942846;28;20031;-59
2024/03/03 09:10:21;;;;;;;13.70;10.68;;;31.40;70.50;;;;;;4976319;28;20428;-54
2024/03/03 09:12:46;;;;;;;14.60;10.80;;;31.70;70.30;;;;;;4938865;29;20075;-55
2024/03/03 09:15:15;;;;;;;13.20;9.75;;;31.80;69.70;;;;;;4955013;29;20084;-57
2024/03/03 09:17:41;;;;;;;16.60;9.77;;;32.00;68.60;;;;;;4954820;29;20103;-52
2024/03/03 09:20:07;;;;;;;15.43;9.73;;;31.70;69.00;;;;;;4908981;29;20048;-57
2024/03/03 09:22:33;;;;;;;33.55;9.60;;;31.50;68.80;;;;;;4915757;29;20028;-56
2024/03/03 09:24:59;;;;;;;19.10;7.53;;;31.80;68.20;;;;;;4916672;29;20507;-56
2024/03/03 09:27:25;;;;;;;9.63;6.20;;;31.70;67.90;;;;;;4916788;29;20036;-52
2024/03/03 09:29:52;;;;;;;8.70;5.50;;;30.80;67.50;;;;;;4916497;29;20028;-54
2024/03/03 09:32:18;;;;;;;12.95;5.75;;;31.40;67.80;;;;;;4916439;29;20111;-52
2024/03/03 09:34:44;;;;;;;8.05;4.53;;;31.50;67.70;;;;;;4916340;29;20055;-54
2024/03/03 09:37:13;;;;;;;10.60;4.63;;;30.60;67.30;;;;;;4916724;29;20481;-57
2024/03/03 09:39:39;;;;;;;9.88;4.80;;;30.90;68.10;;;;;;4900847;29;20435;-53
2024/03/03 09:42:05;;;;;;;11.82;5.13;;;;;;;;;;4916391;29;20032;-55
2024/03/03 09:44:48;;;;;;;9.25;5.60;;;31.90;67.00;;;;;;4916360;29;20075;-55
2024/03/03 09:47:15;;;;;;;9.63;5.65;;;31.60;67.30;;;;;;4916217;29;20024;-51
2024/03/03 09:49:48;;;;;;;8.68;5.45;;;30.40;67.40;;;;;;4927811;28;20039;-54
2024/03/03 09:52:15;;;;;;;11.85;5.85;;;30.40;68.80;;;;;;4956177;29;20491;-55
2024/03/03 09:54:41;;;;;;;7.88;4.40;;;30.70;67.90;;;;;;4956332;29;20038;-57
2024/03/03 09:57:13;;;;;;;8.95;4.70;;;31.00;68.10;;;;;;4956126;29;20046;-59
2024/03/03 09:59:42;;;;;;;;;;;30.00;67.70;;;;;;4956741;29;20035;-54
2024/03/03 10:02:16;;;;;;;6.70;3.80;;;30.50;68.40;;;;;;4956102;29;19913;-53
2024/03/03 10:04:48;;;;;;;7.65;3.50;;;30.90;67.70;;;;;;4956060;29;20031;-54
2024/03/03 10:07:39;;;;;;;7.45;3.85;;;29.80;67.10;;;;;;4923940;29;20103;-55
2024/03/03 10:10:08;;;;;;;6.07;3.63;;;28.30;67.50;;;;;;4955972;29;20023;-54
2024/03/03 10:12:35;;;;;;;6.32;3.58;;;28.60;68.60;;;;;;4938182;29;20039;-54
2024/03/03 10:15:04;;;;;;;5.80;4.07;;;28.50;67.90;;;;;;4955741;29;20086;-51
2024/03/03 10:17:31;;;;;;;7.32;4.20;;;28.50;68.90;;;;;;4906612;29;20399;-57
2024/03/03 10:20:08;;;;;;;7.57;4.90;;;29.30;68.50;;;;;;4955468;28;20519;-52
2024/03/03 10:22:35;;;;;;;5.45;3.78;;;29.40;68.60;;;;;;4955701;29;20502;-59
2024/03/03 10:25:10;;;;;;;6.10;4.07;;;;;;;;;;4955255;29;20069;-51
2024/03/03 10:27:39;;;;;;;7.35;3.90;;;30.60;68.10;;;;;;4962504;28;20034;-56
2024/03/03 10:30:07;;;;;;;8.52;3.67;;;30.80;67.90;;;;;;4971733;28;20031;-53
2024/03/03 10:32:34;;;;;;;7.82;3.45;;;31.10;67.70;;;;;;4974073;28;20053;-56
2024/03/03 10:35:00;;;;;;;6.15;2.20;;;31.30;83.10;;;;;;4970087;28;20093;-51
2024/03/03 10:37:27;;;;;;;5.15;2.83;;;;;;;;;;4957408;28;20395;-54
2024/03/03 10:39:54;;;;;;;5.00;3.40;;;29.30;66.40;;;;;;4974694;28;20478;-53
2024/03/03 10:42:20;;;;;;;6.30;2.90;;;28.60;67.10;;;;;;4974471;28;20027;-54
2024/03/03 10:44:46;;;;;;;3.90;2.55;;;28.60;68.00;;;;;;4956157;28;20034;-57
2024/03/03 10:47:15;;;;;;;5.55;3.20;;;28.60;69.00;;;;;;4956813;28;20394;-53
2024/03/03 10:49:41;;;;;;;11.30;4.93;;;28.50;68.50;;;;;;4973806;28;20470;-56
2024/03/03 10:52:11;;;;;;;7.25;2.63;;;28.70;68.60;;;;;;4973107;28;20023;-53
2024/03/03 10:54:38;;;;;;;7.80;3.10;;;28.00;67.70;;;;;;4960975;28;20425;-51
2024/03/03 10:57:05;;;;;;;5.05;2.60;;;28.50;69.20;;;;;;4973695;28;20034;-51
2024/03/03 10:59:34;;;;;;;4.35;2.28;;;29.30;68.80;;;;;;4973916;28;20073;-52
2024/03/03 11:02:03;;;;;;;5.00;2.50;;;29.90;68.70;;;;;;4958347;28;20030;-50
2024/03/03 11:04:31;;;;;;;5.82;2.55;;;;;;;;;;4965311;28;20046;-53
2024/03/03 11:07:03;;;;;;;6.75;3.00;;;31.10;79.50;;;;;;4970447;28;20436;-53
2024/03/03 11:09:29;;;;;;;4.25;2.95;;;30.40;71.80;;;;;;4969409;28;20035;-52
2024/03/03 11:12:00;;;;;;;5.35;2.53;;;30.00;80.40;;;;;;4952309;28;20159;-51
2024/03/03 11:14:32;;;;;;;4.18;2.33;;;30.40;80.40;;;;;;4925718;28;20607;-53
2024/03/03 11:17:01;;;;;;;6.07;2.83;;;30.30;80.40;;;;;;4967516;28;20395;-52
2024/03/03 11:19:41;;;;;;;5.07;2.63;;;;;;;;;;4963088;28;20407;-52
2024/03/03 11:22:12;;;;;;;13.52;4.63;;;;;;;;;;4960324;28;20035;-53
2024/03/03 11:24:43;;;;;;;14.43;2.70;;;26.80;68.00;;;;;;4967136;28;20038;-52
2024/03/03 11:27:18;;;;;;;5.18;2.30;;;26.90;69.30;;;;;;4970488;28;20030;-51
2024/03/03 11:29:45;;;;;;;5.43;2.38;;;27.10;68.70;;;;;;4966033;28;20031;-52
2024/03/03 11:32:13;;;;;;;4.03;2.40;;;26.90;69.70;;;;;;4961894;28;20395;-53
2024/03/03 11:34:41;;;;;;;5.28;3.95;;;26.80;71.90;;;;;;4958056;28;20163;-52
2024/03/03 11:37:09;;;;;;;4.57;2.63;;;27.70;69.20;;;;;;4965281;28;20027;-53
2024/03/03 11:39:35;;;;;;;3.83;2.35;;;26.90;68.40;;;;;;4964469;28;20041;-52
2024/03/03 11:42:19;;;;;;;3.97;1.92;;;27.50;68.60;;;;;;4951760;28;20036;-53
2024/03/03 11:44:52;;;;;;;4.35;2.25;;;27.90;68.20;;;;;;4966420;28;20023;-53
2024/03/03 11:47:22;;;;;;;4.97;2.42;;;28.20;68.40;;;;;;4969614;28;20033;-52
2024/03/03 11:49:48;;;;;;;6.75;2.13;;;27.70;68.10;;;;;;4973586;28;20035;-51
2024/03/03 11:52:40;;;;;;;5.90;1.75;;;27.70;67.50;;;;;;4971156;28;20494;-51
2024/03/03 11:55:10;;;;;;;4.50;2.40;;;28.60;67.30;;;;;;4962944;28;20130;-53
2024/03/03 11:57:40;;;;;;;5.60;3.10;;;28.40;66.90;;;;;;4967782;28;20086;-52
2024/03/03 12:00:13;;;;;;;4.90;1.95;;;28.00;66.50;;;;;;4974542;28;20081;-52
2024/03/03 12:02:41;;;;;;;5.25;1.70;;;28.00;67.20;;;;;;4934035;28;20039;-52
2024/03/03 12:05:13;;;;;;;5.03;2.55;;;27.80;69.00;;;;;;4969578;28;20538;-52
2024/03/03 12:07:43;;;;;;;4.82;2.10;;;27.60;67.50;;;;;;4965380;28;20082;-52
2024/03/03 12:10:22;;;;;;;6.63;2.58;;;27.80;67.80;;;;;;4969254;28;20106;-50
2024/03/03 12:12:49;;;;;;;4.25;2.33;;;27.60;69.30;;;;;;4967531;28;20052;-51
2024/03/03 12:15:20;;;;;;;4.75;2.28;;;27.80;68.70;;;;;;4967783;28;20031;-52
2024/03/03 12:17:48;;;;;;;6.18;2.45;;;28.40;68.00;;;;;;4968156;28;20411;-51
2024/03/03 12:20:19;;;;;;;4.47;1.98;;;28.30;67.20;;;;;;4964769;28;20422;-53
2024/03/03 12:22:47;;;;;;;4.82;1.73;;;28.10;67.40;;;;;;4960302;28;20023;-51
2024/03/03 12:25:15;;;;;;;4.88;1.88;;;28.30;67.10;;;;;;4952721;28;20030;-51
2024/03/03 12:28:01;;;;;;;8.05;2.25;;;28.50;67.00;;;;;;4971848;28;20039;-50
2024/03/03 12:30:35;;;;;;;5.68;1.88;;;28.00;67.70;;;;;;4969976;28;20047;-52
2024/03/03 12:33:02;;;;;;;5.60;2.50;;;28.10;67.70;;;;;;4961670;28;20045;-50
2024/03/03 12:35:28;;;;;;;5.05;2.00;;;27.90;67.70;;;;;;4965014;28;20122;-52
2024/03/03 12:37:54;;;;;;;3.97;2.08;;;27.70;68.10;;;;;;4966302;28;20101;-52
2024/03/03 12:40:20;;;;;;;6.07;2.53;;;27.70;68.00;;;;;;4966063;28;20043;-52
2024/03/03 12:42:52;;;;;;;5.75;2.97;;;27.30;68.10;;;;;;4898221;28;20042;-53
2024/03/03 12:45:19;;;;;;;5.78;2.78;;;27.30;68.00;;;;;;4954191;28;20433;-52
2024/03/03 12:47:45;;;;;;;7.43;2.40;;;;;;;;;;4967077;28;20506;-52
2024/03/03 12:50:15;;;;;;;4.45;2.35;;;;;;;;;;4962271;28;20533;-51
2024/03/03 12:52:42;;;;;;;6.53;2.30;;;26.30;68.80;;;;;;4968889;28;20035;-50
2024/03/03 12:55:12;;;;;;;5.10;2.22;;;26.40;70.40;;;;;;4966688;28;20035;-51
2024/03/03 12:57:43;;;;;;;4.88;2.25;;;25.80;69.20;;;;;;4914029;28;20090;-52